Time;durP1;ratioP1;P1;durP2;ratioP2;P2;SDS_P1;SDS_P2;PMS_P1;PMS_P2;Temp;Humidity;BMP_temperature;BMP_pressure;BME280_temperature;BME280_humidity;BME280_pressure;Samples;Min_cycle;Max_cycle;Signal;HPM_P1;HPM_P2
2022/06/10 00:02:06;;;;;;;22.00;21.10;;;15.30;43.60;;;;;;4974090;28;20689;-83
2022/06/10 00:04:32;;;;;;;25.57;24.03;;;15.30;44.20;;;;;;4973282;28;20174;-83
2022/06/10 00:06:58;;;;;;;22.87;22.00;;;15.30;44.10;;;;;;4973342;28;20174;-83
2022/06/10 00:09:24;;;;;;;22.73;21.73;;;15.30;44.80;;;;;;4971500;28;20428;-84
2022/06/10 00:11:50;;;;;;;22.63;21.80;;;15.20;44.80;;;;;;4991699;28;20821;-83
2022/06/10 00:14:16;;;;;;;22.33;21.40;;;15.30;45.50;;;;;;4973399;28;20611;-84
2022/06/10 00:16:41;;;;;;;22.07;21.20;;;15.20;45.90;;;;;;4973720;28;20182;-83
2022/06/10 00:19:07;;;;;;;22.23;21.43;;;15.10;45.60;;;;;;4974308;28;20184;-83
2022/06/10 00:21:32;;;;;;;21.63;20.83;;;15.10;46.10;;;;;;4975014;28;20222;-84
2022/06/10 00:23:58;;;;;;;21.90;21.10;;;15.10;46.10;;;;;;4975026;28;20193;-84
2022/06/10 00:26:24;;;;;;;20.97;20.17;;;15.10;46.10;;;;;;4976556;28;20185;-83
2022/06/10 00:28:49;;;;;;;21.57;20.60;;;15.10;46.30;;;;;;4976840;28;20193;-83
2022/06/10 00:31:16;;;;;;;22.03;21.03;;;15.00;46.00;;;;;;4977657;28;20209;-84
2022/06/10 00:33:42;;;;;;;22.60;21.40;;;15.00;46.30;;;;;;4976583;28;20170;-84
2022/06/10 00:36:09;;;;;;;22.00;21.20;;;15.00;47.00;;;;;;4977022;28;20472;-84
2022/06/10 00:38:35;;;;;;;23.10;22.20;;;14.90;46.60;;;;;;4976026;28;20428;-83
2022/06/10 00:41:02;;;;;;;22.47;21.47;;;15.00;47.60;;;;;;4977268;28;20421;-84
2022/06/10 00:43:33;;;;;;;21.47;20.67;;;14.90;47.50;;;;;;4973385;28;20445;-83
2022/06/10 00:46:02;;;;;;;22.40;21.50;;;15.00;47.60;;;;;;4975307;28;20425;-83
2022/06/10 00:48:36;;;;;;;23.33;22.03;;;15.00;47.20;;;;;;4975204;28;20520;-84
2022/06/10 00:51:11;;;;;;;22.90;22.00;;;15.00;47.40;;;;;;4973221;28;20546;-83
2022/06/10 00:53:37;;;;;;;23.50;21.83;;;14.90;47.80;;;;;;4974472;28;20520;-83
2022/06/10 00:56:16;;;;;;;22.30;21.10;;;14.90;47.70;;;;;;4976307;28;20436;-83
2022/06/10 00:59:03;;;;;;;22.43;21.63;;;14.90;47.70;;;;;;4974319;28;20505;-84
2022/06/10 01:01:31;;;;;;;22.33;21.47;;;14.90;47.90;;;;;;4974960;28;20476;-84
2022/06/10 01:03:58;;;;;;;23.07;21.90;;;14.80;47.20;;;;;;4991671;28;20412;-83
2022/06/10 01:06:24;;;;;;;22.50;21.50;;;14.80;47.70;;;;;;4974413;28;20452;-83
2022/06/10 01:08:51;;;;;;;21.80;21.00;;;14.80;47.80;;;;;;4974919;28;20496;-83
2022/06/10 01:11:44;;;;;;;22.00;21.20;;;14.70;47.30;;;;;;4973991;28;20519;-83
2022/06/10 01:14:34;;;;;;;22.53;21.30;;;14.70;47.60;;;;;;4973982;28;20468;-84
2022/06/10 01:17:20;;;;;;;21.90;21.10;;;14.60;48.60;;;;;;4974961;28;20471;-83
2022/06/10 01:19:55;;;;;;;21.63;20.83;;;14.60;48.90;;;;;;4934899;28;20875;-83
2022/06/10 01:22:40;;;;;;;21.90;21.00;;;14.60;49.40;;;;;;4973981;28;20515;-84
2022/06/10 01:25:41;;;;;;;23.20;22.10;;;14.60;48.90;;;;;;4974776;28;20443;-85
2022/06/10 01:28:44;;;;;;;21.90;20.90;;;14.60;48.30;;;;;;4909766;28;20429;-85
2022/06/10 01:31:38;;;;;;;21.57;20.47;;;14.50;48.00;;;;;;4973208;28;20471;-84
2022/06/10 01:34:46;;;;;;;22.40;21.40;;;14.50;48.50;;;;;;4975523;28;20413;-84
2022/06/10 01:37:35;;;;;;;22.47;21.57;;;14.50;49.10;;;;;;4960905;28;20425;-84
2022/06/10 01:40:33;;;;;;;22.57;21.67;;;14.40;49.20;;;;;;4973537;28;20483;-84
2022/06/10 01:43:05;;;;;;;21.80;21.00;;;14.40;49.00;;;;;;4959329;28;20785;-84
2022/06/10 01:45:55;;;;;;;22.10;21.20;;;14.40;49.30;;;;;;4973119;28;20909;-84
2022/06/10 01:48:32;;;;;;;23.33;22.20;;;14.30;49.40;;;;;;4974730;28;20440;-85
2022/06/10 01:51:14;;;;;;;24.00;22.10;;;14.30;49.90;;;;;;4972366;28;20819;-84
2022/06/10 01:53:57;;;;;;;21.87;20.87;;;14.30;49.90;;;;;;4973851;28;20421;-84
2022/06/10 01:56:30;;;;;;;20.90;20.00;;;14.30;50.10;;;;;;4975724;28;20794;-84
2022/06/10 01:59:16;;;;;;;22.07;21.17;;;14.30;50.20;;;;;;4974721;28;20500;-84
2022/06/10 02:01:53;;;;;;;22.37;21.43;;;14.20;50.40;;;;;;4973815;28;20929;-84
2022/06/10 02:04:23;;;;;;;22.10;21.10;;;14.20;50.30;;;;;;4974652;28;20417;-83
2022/06/10 02:06:53;;;;;;;22.80;21.90;;;14.20;50.80;;;;;;4975081;28;20437;-84
2022/06/10 02:09:24;;;;;;;21.93;21.03;;;14.10;50.50;;;;;;4975549;28;20560;-84
2022/06/10 02:11:55;;;;;;;23.20;22.20;;;14.10;50.90;;;;;;4975997;28;20541;-84
2022/06/10 02:14:29;;;;;;;23.93;22.70;;;14.10;51.20;;;;;;4972944;28;20429;-84
2022/06/10 02:16:57;;;;;;;23.50;22.60;;;14.10;51.50;;;;;;4974466;28;20940;-84
2022/06/10 02:19:40;;;;;;;22.70;21.80;;;14.10;51.10;;;;;;4974325;28;20420;-84
2022/06/10 02:22:25;;;;;;;24.20;22.90;;;14.10;51.50;;;;;;4973960;28;20508;-86
2022/06/10 02:24:58;;;;;;;23.73;22.20;;;14.10;51.40;;;;;;4994647;28;21006;-84
2022/06/10 02:27:34;;;;;;;23.40;22.40;;;14.10;51.60;;;;;;5011219;28;20413;-84
2022/06/10 02:30:06;;;;;;;23.23;22.33;;;14.10;51.10;;;;;;4976087;28;20484;-83
2022/06/10 02:32:34;;;;;;;23.13;22.23;;;14.10;51.60;;;;;;4974303;28;20457;-83
2022/06/10 02:35:01;;;;;;;24.03;22.70;;;14.10;52.00;;;;;;4991153;28;20413;-83
2022/06/10 02:37:49;;;;;;;23.10;22.10;;;14.10;51.90;;;;;;4959295;28;20535;-83
2022/06/10 02:40:26;;;;;;;23.07;22.20;;;14.10;52.60;;;;;;4973574;28;20516;-83
2022/06/10 02:43:04;;;;;;;23.70;22.70;;;14.00;52.30;;;;;;4972552;28;20552;-83
2022/06/10 02:45:57;;;;;;;22.70;21.80;;;14.00;52.60;;;;;;4971556;28;20421;-83
2022/06/10 02:49:12;;;;;;;23.90;22.90;;;14.00;52.40;;;;;;4970762;28;20421;-83
2022/06/10 02:51:38;;;;;;;23.80;22.80;;;14.00;53.00;;;;;;4956318;28;20465;-84
2022/06/10 02:54:17;;;;;;;23.00;22.00;;;14.00;53.30;;;;;;4971738;28;20453;-84
2022/06/10 02:56:43;;;;;;;23.30;22.20;;;14.00;53.40;;;;;;4970741;28;20428;-84
2022/06/10 03:02:24;;;;;;;22.60;21.27;;;13.90;53.80;;;;;;4990138;28;20901;-84
2022/06/10 03:05:04;;;;;;;24.40;23.20;;;13.90;53.50;;;;;;4971488;28;20417;-83
2022/06/10 03:07:54;;;;;;;24.90;23.73;;;13.80;54.10;;;;;;4971979;28;20457;-85
2022/06/10 03:10:36;;;;;;;25.57;24.30;;;13.90;53.90;;;;;;4972382;28;20543;-83
2022/06/10 03:13:21;;;;;;;24.37;23.37;;;13.90;54.20;;;;;;4973206;28;20459;-84
2022/06/10 03:16:16;;;;;;;23.90;22.90;;;13.80;54.30;;;;;;4971025;28;20413;-84
2022/06/10 03:19:09;;;;;;;24.70;23.60;;;13.80;54.40;;;;;;4972665;28;20417;-84
2022/06/10 03:22:04;;;;;;;24.23;23.13;;;13.80;54.80;;;;;;4971261;28;20921;-83
2022/06/10 03:25:02;;;;;;;25.87;24.57;;;13.80;54.70;;;;;;4960225;28;20515;-84
2022/06/10 03:27:54;;;;;;;24.13;22.83;;;13.80;54.80;;;;;;4946258;28;20429;-83
2022/06/10 03:30:24;;;;;;;24.67;23.50;;;13.80;54.80;;;;;;4967816;28;20468;-83
2022/06/10 03:33:10;;;;;;;25.10;24.03;;;13.70;54.60;;;;;;4971939;28;20432;-82
2022/06/10 03:35:49;;;;;;;24.43;23.30;;;13.70;54.60;;;;;;4969057;28;20448;-84
2022/06/10 03:38:16;;;;;;;24.13;23.13;;;13.70;54.60;;;;;;4972306;28;20424;-84
2022/06/10 03:40:53;;;;;;;25.50;24.40;;;13.70;54.80;;;;;;4971578;28;20444;-83
2022/06/10 03:43:19;;;;;;;24.93;23.83;;;13.70;55.20;;;;;;4971571;28;20428;-82
2022/06/10 03:45:59;;;;;;;24.67;23.67;;;13.60;55.30;;;;;;4972500;28;20451;-84
2022/06/10 03:48:27;;;;;;;26.30;25.10;;;13.60;55.90;;;;;;4972319;28;20201;-83
2022/06/10 03:50:54;;;;;;;25.47;24.10;;;13.70;55.30;;;;;;4970953;28;20461;-83
2022/06/10 03:53:23;;;;;;;26.20;24.90;;;13.70;55.70;;;;;;4988914;28;20904;-83
2022/06/10 03:55:48;;;;;;;25.17;24.07;;;13.60;55.70;;;;;;4972597;28;20448;-82
2022/06/10 03:58:14;;;;;;;26.23;25.13;;;13.60;55.70;;;;;;4971391;28;20424;-83
2022/06/10 04:00:40;;;;;;;26.93;25.73;;;13.60;56.00;;;;;;4974761;28;20188;-84
2022/06/10 04:03:06;;;;;;;27.73;26.43;;;13.60;56.10;;;;;;4975573;28;20530;-87
2022/06/10 04:05:32;;;;;;;27.47;26.07;;;13.60;56.10;;;;;;4988982;28;20213;-84
2022/06/10 04:07:58;;;;;;;27.93;26.63;;;13.60;55.90;;;;;;4974549;28;20425;-83
2022/06/10 04:10:27;;;;;;;26.73;25.60;;;13.70;56.00;;;;;;4974309;28;20476;-84
2022/06/10 04:12:54;;;;;;;27.80;26.57;;;13.70;56.00;;;;;;4974071;28;20427;-84
2022/06/10 04:15:20;;;;;;;34.33;32.13;;;13.70;56.20;;;;;;4976204;28;20766;-83
2022/06/10 04:17:50;;;;;;;26.93;25.63;;;13.70;56.00;;;;;;4974416;28;20480;-85
2022/06/10 04:20:29;;;;;;;27.57;26.07;;;13.60;56.10;;;;;;4975014;28;20780;-84
2022/06/10 04:22:55;;;;;;;26.10;24.90;;;13.70;56.20;;;;;;4977614;28;20421;-84
2022/06/10 04:25:21;;;;;;;26.80;25.60;;;13.80;55.70;;;;;;4974647;28;20446;-86
2022/06/10 04:27:47;;;;;;;26.73;25.53;;;13.80;55.30;;;;;;4974669;28;21121;-86
2022/06/10 04:30:25;;;;;;;27.47;26.27;;;13.80;55.10;;;;;;4976190;28;20456;-84
2022/06/10 04:32:52;;;;;;;25.87;24.60;;;13.80;55.60;;;;;;4974069;28;20730;-84
2022/06/10 04:35:18;;;;;;;25.80;24.50;;;13.80;54.80;;;;;;4977190;28;20467;-85
2022/06/10 04:37:45;;;;;;;25.00;24.00;;;13.80;54.50;;;;;;4984328;28;20417;-85
2022/06/10 04:40:14;;;;;;;25.97;24.60;;;13.90;54.80;;;;;;4977420;28;20445;-85
2022/06/10 04:42:40;;;;;;;27.27;26.07;;;14.00;53.90;;;;;;4971188;28;20418;-84
2022/06/10 04:45:07;;;;;;;30.17;28.47;;;14.00;54.90;;;;;;4971261;28;20426;-83
2022/06/10 04:47:32;;;;;;;27.37;26.00;;;14.00;53.70;;;;;;4965195;28;20774;-83
2022/06/10 04:49:59;;;;;;;26.73;25.60;;;14.10;53.80;;;;;;4973272;28;20429;-82
2022/06/10 04:52:27;;;;;;;25.67;24.57;;;14.10;53.40;;;;;;4978521;28;20598;-83
2022/06/10 04:54:53;;;;;;;27.77;25.67;;;14.10;53.40;;;;;;4978116;28;20885;-83
2022/06/10 04:57:20;;;;;;;21.73;20.73;;;14.10;53.20;;;;;;4977854;28;20430;-81
2022/06/10 04:59:46;;;;;;;26.17;25.07;;;14.20;53.70;;;;;;4972176;28;20481;-81
2022/06/10 05:02:12;;;;;;;23.67;22.57;;;14.20;53.00;;;;;;4957315;28;20429;-81
2022/06/10 05:04:38;;;;;;;25.77;24.57;;;14.30;52.90;;;;;;4958055;28;20447;-81
2022/06/10 05:07:04;;;;;;;26.83;25.27;;;14.30;53.20;;;;;;4957719;28;20214;-81
2022/06/10 05:09:29;;;;;;;25.77;24.63;;;14.40;50.60;;;;;;4956577;28;20174;-82
2022/06/10 05:11:55;;;;;;;25.20;24.20;;;14.50;51.40;;;;;;4957632;28;20457;-82
2022/06/10 05:14:22;;;;;;;26.33;25.23;;;14.50;51.80;;;;;;4975295;28;20170;-82
2022/06/10 05:16:47;;;;;;;26.43;25.33;;;14.50;51.50;;;;;;4974519;28;20178;-82
2022/06/10 05:19:13;;;;;;;25.27;24.07;;;14.50;52.10;;;;;;4971755;28;20508;-81
2022/06/10 05:21:39;;;;;;;25.17;23.90;;;14.50;52.00;;;;;;4973984;28;20512;-83
2022/06/10 05:24:05;;;;;;;25.20;24.00;;;14.60;51.90;;;;;;4976074;28;20854;-82
2022/06/10 05:26:34;;;;;;;26.17;24.77;;;14.60;51.50;;;;;;4974602;28;20604;-82
2022/06/10 05:29:00;;;;;;;25.63;24.53;;;14.60;51.40;;;;;;4973891;28;20479;-83
2022/06/10 05:31:26;;;;;;;25.10;24.00;;;14.70;51.50;;;;;;4977419;28;20506;-83
2022/06/10 05:36:40;;;;;;;26.23;24.93;;;14.80;50.60;;;;;;4980478;28;20185;-85
2022/06/10 05:39:06;;;;;;;26.80;25.60;;;14.80;50.30;;;;;;4975105;28;20763;-85
2022/06/10 05:44:16;;;;;;;27.60;25.57;;;14.90;50.60;;;;;;4991020;28;20448;-86
2022/06/10 05:46:41;;;;;;;24.53;23.07;;;14.90;50.40;;;;;;4974001;28;20452;-86
2022/06/10 05:49:07;;;;;;;25.90;24.73;;;15.00;50.70;;;;;;4973891;28;20184;-85
2022/06/10 05:51:33;;;;;;;25.10;23.90;;;15.00;50.80;;;;;;4975218;28;20206;-86
2022/06/10 05:53:59;;;;;;;25.50;24.47;;;15.10;50.60;;;;;;4975259;28;20788;-84
2022/06/10 05:56:25;;;;;;;25.70;24.50;;;15.20;50.00;;;;;;4974772;28;20413;-84
2022/06/10 05:58:50;;;;;;;25.83;24.33;;;15.20;50.40;;;;;;4974678;28;20769;-84
2022/06/10 06:01:16;;;;;;;25.73;24.63;;;15.30;49.60;;;;;;4974918;28;20204;-84
2022/06/10 06:03:42;;;;;;;26.50;25.13;;;15.40;49.70;;;;;;4973508;28;20654;-85
2022/06/10 06:06:08;;;;;;;28.03;26.50;;;15.40;48.90;;;;;;4971864;28;20193;-84
2022/06/10 06:08:35;;;;;;;27.77;26.27;;;15.40;47.50;;;;;;4974737;28;20274;-83
2022/06/10 06:11:01;;;;;;;28.53;27.13;;;15.50;47.90;;;;;;4973189;28;20456;-83
2022/06/10 06:13:26;;;;;;;27.60;26.30;;;15.50;48.10;;;;;;4971927;28;20472;-83
2022/06/10 06:15:52;;;;;;;26.87;25.77;;;15.60;47.40;;;;;;4972446;28;20185;-83
2022/06/10 06:18:18;;;;;;;25.70;24.50;;;15.60;48.50;;;;;;4972345;28;20547;-84
2022/06/10 06:20:44;;;;;;;27.27;25.80;;;15.70;47.40;;;;;;4970913;28;20260;-83
2022/06/10 06:23:09;;;;;;;25.80;24.70;;;15.70;47.60;;;;;;4971854;28;20236;-83
2022/06/10 06:25:35;;;;;;;27.30;25.90;;;15.80;47.30;;;;;;4971746;28;20185;-83
2022/06/10 06:28:00;;;;;;;27.50;26.20;;;15.90;46.70;;;;;;4972057;28;20182;-85
2022/06/10 06:30:32;;;;;;;27.20;25.90;;;15.90;46.80;;;;;;4971158;28;20421;-87
2022/06/10 06:33:00;;;;;;;27.17;25.77;;;16.00;46.90;;;;;;4971920;28;20269;-87
2022/06/10 06:35:26;;;;;;;28.77;26.93;;;16.10;47.00;;;;;;4971591;28;20925;-87
2022/06/10 06:37:52;;;;;;;30.47;28.97;;;16.10;47.50;;;;;;4974478;28;20417;-87
2022/06/10 06:40:18;;;;;;;28.97;27.37;;;16.20;46.50;;;;;;4972138;28;20418;-83
2022/06/10 06:42:47;;;;;;;28.13;26.83;;;16.40;46.50;;;;;;4970279;28;20178;-86
2022/06/10 06:45:13;;;;;;;27.50;26.30;;;16.40;44.70;;;;;;4972597;28;20863;-85
2022/06/10 06:47:40;;;;;;;27.13;25.83;;;16.50;44.80;;;;;;4971458;28;20517;-91
2022/06/10 06:50:06;;;;;;;27.20;25.80;;;16.60;44.30;;;;;;4972481;28;20868;-85
2022/06/10 06:52:32;;;;;;;28.63;27.13;;;16.70;45.50;;;;;;4972614;28;20471;-85
2022/06/10 06:54:57;;;;;;;28.43;26.93;;;16.70;43.70;;;;;;4972833;28;20504;-84
2022/06/10 06:57:25;;;;;;;29.27;27.93;;;16.70;44.70;;;;;;4972570;28;20630;-84
2022/06/10 07:00:02;;;;;;;27.33;25.80;;;16.80;45.50;;;;;;4973545;28;20189;-83
2022/06/10 07:02:27;;;;;;;28.90;27.10;;;17.00;44.10;;;;;;4971531;28;20552;-86
2022/06/10 07:04:53;;;;;;;28.60;27.10;;;17.10;44.40;;;;;;4971386;28;20508;-83
2022/06/10 07:07:19;;;;;;;27.70;26.40;;;17.10;43.30;;;;;;4976447;28;20174;-83
2022/06/10 07:09:49;;;;;;;28.13;26.73;;;17.10;42.70;;;;;;4969616;28;20650;-84
2022/06/10 07:12:23;;;;;;;29.83;28.33;;;17.10;42.70;;;;;;4957471;28;20186;-83
2022/06/10 07:14:49;;;;;;;30.27;28.87;;;17.30;44.10;;;;;;4957313;28;20799;-85
2022/06/10 07:17:16;;;;;;;29.00;27.50;;;17.40;41.10;;;;;;4956370;28;20422;-83
2022/06/10 07:20:08;;;;;;;31.73;30.03;;;17.40;41.70;;;;;;4956813;28;20233;-84
2022/06/10 07:22:34;;;;;;;28.03;26.73;;;17.40;41.90;;;;;;4955594;28;20921;-84
2022/06/10 07:24:59;;;;;;;29.50;28.10;;;17.40;42.00;;;;;;4955919;28;20557;-85
2022/06/10 07:27:25;;;;;;;28.90;27.60;;;17.40;42.50;;;;;;4955528;28;20178;-85
2022/06/10 07:29:51;;;;;;;28.43;27.13;;;17.40;41.50;;;;;;4955772;28;20186;-85
2022/06/10 07:32:17;;;;;;;28.57;27.00;;;17.50;42.50;;;;;;4957221;28;20422;-84
2022/06/10 07:34:43;;;;;;;28.17;26.57;;;17.60;42.60;;;;;;4962409;28;20533;-83
2022/06/10 07:37:08;;;;;;;27.73;26.40;;;17.60;42.60;;;;;;4961906;28;20497;-86
2022/06/10 07:39:35;;;;;;;27.97;26.60;;;17.50;42.20;;;;;;4962228;28;20182;-84
2022/06/10 07:42:02;;;;;;;27.50;26.30;;;17.50;39.90;;;;;;4962094;28;20193;-85
2022/06/10 07:44:38;;;;;;;26.93;25.63;;;17.50;39.40;;;;;;4961685;28;20469;-83
2022/06/10 07:47:07;;;;;;;28.27;26.67;;;17.70;40.10;;;;;;4974326;28;20452;-84
2022/06/10 07:49:34;;;;;;;28.20;26.80;;;17.80;39.80;;;;;;4980977;28;20429;-83
2022/06/10 07:52:00;;;;;;;28.70;27.40;;;17.90;40.50;;;;;;4981077;28;20464;-83
2022/06/10 07:54:26;;;;;;;29.83;28.23;;;17.90;41.10;;;;;;4981421;28;20516;-82
2022/06/10 07:56:52;;;;;;;27.40;25.83;;;18.00;41.10;;;;;;4981059;28;20496;-84
2022/06/10 07:59:19;;;;;;;28.63;26.93;;;18.10;40.60;;;;;;4981419;28;20173;-84
2022/06/10 08:01:45;;;;;;;27.20;26.00;;;18.10;40.50;;;;;;4981403;28;20421;-84
2022/06/10 08:04:10;;;;;;;28.47;27.17;;;18.00;40.20;;;;;;4981280;28;20447;-83
2022/06/10 08:06:42;;;;;;;28.93;27.37;;;18.20;38.70;;;;;;4980852;28;20508;-83
2022/06/10 08:09:08;;;;;;;27.07;25.87;;;18.30;39.70;;;;;;4981478;28;20503;-83
2022/06/10 08:11:36;;;;;;;29.03;27.63;;;18.30;39.60;;;;;;4981296;28;20453;-83
2022/06/10 08:14:03;;;;;;;27.47;26.07;;;18.30;38.80;;;;;;4981077;28;20465;-83
2022/06/10 08:16:29;;;;;;;29.83;27.93;;;18.40;39.20;;;;;;4980985;28;20416;-85
2022/06/10 08:18:55;;;;;;;28.97;27.57;;;18.50;39.10;;;;;;4981836;28;20424;-85
2022/06/10 08:24:06;;;;;;;27.80;26.60;;;18.50;37.90;;;;;;4999124;28;20455;-86
2022/06/10 08:26:33;;;;;;;29.43;27.93;;;18.40;38.10;;;;;;4980768;28;20432;-86
2022/06/10 08:29:00;;;;;;;29.70;28.00;;;18.40;38.90;;;;;;4981130;28;20416;-86
2022/06/10 08:31:27;;;;;;;29.83;28.57;;;18.40;38.50;;;;;;4981276;28;20464;-86
2022/06/10 08:33:53;;;;;;;30.17;28.67;;;18.40;38.80;;;;;;4979924;28;20495;-85
2022/06/10 08:36:19;;;;;;;30.37;28.60;;;18.50;38.50;;;;;;4981175;28;20181;-86
2022/06/10 08:38:45;;;;;;;28.13;26.60;;;18.60;39.10;;;;;;4981289;28;20417;-84
2022/06/10 08:41:15;;;;;;;28.87;27.43;;;18.70;39.20;;;;;;4981127;28;20526;-86
2022/06/10 08:44:00;;;;;;;28.70;26.67;;;18.70;37.90;;;;;;4979658;28;20197;-85
2022/06/10 08:46:40;;;;;;;28.13;26.83;;;18.80;37.70;;;;;;4958435;28;20422;-85
2022/06/10 08:49:41;;;;;;;27.87;26.30;;;18.80;35.70;;;;;;4958773;28;20430;-84
2022/06/10 08:52:27;;;;;;;28.77;27.20;;;18.90;36.00;;;;;;4958305;28;20461;-83
2022/06/10 08:54:59;;;;;;;27.33;26.17;;;19.00;36.10;;;;;;4970127;28;20496;-83
2022/06/10 08:57:38;;;;;;;27.60;26.20;;;19.20;34.20;;;;;;4977281;28;20434;-83
2022/06/10 09:00:29;;;;;;;27.50;26.10;;;19.40;32.80;;;;;;4960935;28;20414;-83
2022/06/10 09:03:21;;;;;;;29.50;27.70;;;19.30;33.10;;;;;;4958435;28;20456;-82
2022/06/10 09:05:58;;;;;;;28.27;26.97;;;19.40;33.00;;;;;;4958046;28;20420;-83
2022/06/10 09:08:29;;;;;;;27.47;26.00;;;19.40;30.80;;;;;;4958552;28;20516;-83
2022/06/10 09:11:26;;;;;;;28.40;26.93;;;19.40;32.80;;;;;;4958279;28;20520;-84
2022/06/10 09:13:51;;;;;;;29.23;27.53;;;19.60;31.90;;;;;;4957808;28;20422;-83
2022/06/10 09:16:31;;;;;;;27.97;26.80;;;19.50;33.00;;;;;;4957908;28;20493;-83
2022/06/10 09:19:19;;;;;;;25.17;23.87;;;19.50;32.40;;;;;;4958184;28;20521;-83
2022/06/10 09:22:19;;;;;;;28.63;27.43;;;19.60;30.40;;;;;;4958185;28;20422;-83
2022/06/10 09:24:58;;;;;;;27.43;26.27;;;19.70;29.80;;;;;;4957881;28;21367;-83
2022/06/10 09:27:37;;;;;;;28.10;26.63;;;19.80;29.20;;;;;;4957541;28;20517;-84
2022/06/10 09:30:09;;;;;;;26.90;25.70;;;19.80;29.10;;;;;;4957954;28;20429;-83
2022/06/10 09:32:57;;;;;;;26.60;25.40;;;19.80;29.40;;;;;;4957714;28;20918;-83
2022/06/10 09:35:46;;;;;;;26.67;25.57;;;19.80;29.80;;;;;;4958026;28;20418;-84
2022/06/10 09:38:33;;;;;;;27.00;25.30;;;19.80;28.40;;;;;;4957946;28;20437;-84
2022/06/10 09:41:02;;;;;;;25.90;24.70;;;19.90;29.00;;;;;;4957844;28;20457;-84
2022/06/10 09:44:15;;;;;;;25.80;24.73;;;20.10;30.00;;;;;;4957284;28;20426;-84
2022/06/10 09:46:44;;;;;;;26.23;24.97;;;20.20;29.70;;;;;;4957088;28;20877;-84
2022/06/10 09:49:45;;;;;;;26.40;25.33;;;20.40;29.10;;;;;;4957663;28;20422;-83
2022/06/10 09:52:32;;;;;;;25.37;24.23;;;20.50;28.80;;;;;;4957682;28;20458;-83
2022/06/10 09:55:32;;;;;;;25.50;24.30;;;20.60;28.40;;;;;;4957441;28;20937;-83
2022/06/10 09:58:16;;;;;;;25.20;23.97;;;20.70;28.40;;;;;;4957067;28;20420;-84
2022/06/10 10:00:53;;;;;;;25.67;24.57;;;20.60;28.40;;;;;;4957222;28;20826;-84
2022/06/10 10:03:31;;;;;;;26.20;24.90;;;20.70;27.30;;;;;;4957125;28;20492;-84
2022/06/10 10:06:16;;;;;;;24.80;23.60;;;20.90;27.00;;;;;;4956761;28;20422;-84
2022/06/10 10:08:49;;;;;;;25.43;24.33;;;20.90;27.60;;;;;;4957100;28;20480;-84
2022/06/10 10:11:18;;;;;;;24.10;22.97;;;21.00;26.80;;;;;;4957275;28;20548;-84
2022/06/10 10:13:44;;;;;;;24.37;23.17;;;21.00;27.00;;;;;;4974071;28;20486;-83
2022/06/10 10:16:39;;;;;;;23.50;22.40;;;21.20;25.60;;;;;;4956957;28;20887;-84
2022/06/10 10:19:14;;;;;;;23.60;22.60;;;21.30;25.90;;;;;;4956980;28;20175;-84
2022/06/10 10:21:59;;;;;;;25.00;23.80;;;21.30;25.60;;;;;;4956906;28;20425;-84
2022/06/10 10:24:25;;;;;;;24.60;23.50;;;21.20;25.70;;;;;;4956898;28;20442;-84
2022/06/10 10:26:55;;;;;;;24.10;22.90;;;21.20;25.20;;;;;;4956306;28;20481;-83
2022/06/10 10:29:23;;;;;;;23.53;22.63;;;21.00;26.10;;;;;;4956743;28;20419;-85
2022/06/10 10:32:12;;;;;;;24.77;23.67;;;21.00;26.50;;;;;;4974209;28;20489;-84
2022/06/10 10:34:43;;;;;;;24.90;23.60;;;21.20;27.20;;;;;;4945282;28;20814;-85
2022/06/10 10:37:38;;;;;;;23.80;22.77;;;21.20;25.90;;;;;;4973436;28;20421;-84
2022/06/10 10:40:16;;;;;;;24.37;23.17;;;21.30;26.70;;;;;;4940798;28;20414;-84
2022/06/10 10:42:47;;;;;;;24.03;22.77;;;21.30;26.50;;;;;;4956240;28;20910;-84
2022/06/10 10:45:21;;;;;;;23.70;22.80;;;21.40;26.70;;;;;;4956528;28;20418;-85
2022/06/10 10:47:55;;;;;;;24.53;23.53;;;21.30;26.70;;;;;;4955995;28;20424;-84
2022/06/10 10:50:29;;;;;;;23.97;22.87;;;21.20;26.40;;;;;;4956385;28;20988;-84
2022/06/10 10:52:55;;;;;;;24.57;23.43;;;21.20;26.20;;;;;;4956175;28;20505;-85
2022/06/10 10:55:32;;;;;;;24.00;23.00;;;21.10;26.80;;;;;;4956543;28;20422;-85
2022/06/10 10:58:18;;;;;;;23.70;22.63;;;21.10;26.10;;;;;;4956321;28;20410;-82
2022/06/10 11:00:54;;;;;;;23.20;22.20;;;21.00;26.60;;;;;;4956157;28;20424;-84
2022/06/10 11:03:31;;;;;;;23.30;22.30;;;21.10;26.60;;;;;;4956223;28;20437;-84
2022/06/10 11:06:18;;;;;;;24.00;22.80;;;21.10;26.10;;;;;;4956203;28;20433;-84
2022/06/10 11:08:59;;;;;;;24.33;23.33;;;21.10;26.50;;;;;;4955598;28;20512;-84
2022/06/10 11:11:30;;;;;;;24.30;23.10;;;20.90;26.80;;;;;;4973421;28;20493;-84
2022/06/10 11:14:01;;;;;;;24.43;23.23;;;21.00;27.50;;;;;;4956233;28;20512;-84
2022/06/10 11:16:38;;;;;;;24.53;23.23;;;21.20;27.00;;;;;;4955984;28;20945;-86
2022/06/10 11:19:23;;;;;;;22.77;21.87;;;21.30;25.20;;;;;;4956178;28;20414;-86
2022/06/10 11:22:01;;;;;;;24.20;22.53;;;21.60;25.70;;;;;;4956080;28;20568;-86
2022/06/10 11:24:42;;;;;;;23.50;22.50;;;21.70;25.80;;;;;;4956023;28;20440;-86
2022/06/10 11:27:29;;;;;;;23.70;22.50;;;21.70;25.00;;;;;;4955757;28;20430;-86
2022/06/10 11:30:32;;;;;;;24.20;23.10;;;21.70;25.10;;;;;;4955838;28;20426;-86
2022/06/10 11:33:02;;;;;;;23.80;22.50;;;21.70;25.30;;;;;;4949753;28;20520;-87
2022/06/10 11:35:31;;;;;;;23.93;22.83;;;21.80;24.60;;;;;;4973255;28;20406;-86
2022/06/10 11:38:16;;;;;;;24.00;22.90;;;21.90;25.70;;;;;;4956497;28;20854;-86
2022/06/10 11:40:53;;;;;;;24.33;23.17;;;22.00;24.30;;;;;;4956442;28;20426;-83
2022/06/10 11:43:29;;;;;;;23.83;22.80;;;22.30;23.90;;;;;;4956908;28;20777;-83
2022/06/10 11:46:05;;;;;;;24.30;23.20;;;22.30;24.60;;;;;;4955771;28;20496;-85
2022/06/10 11:48:40;;;;;;;25.10;23.77;;;22.50;23.40;;;;;;4955934;28;20512;-85
2022/06/10 11:51:18;;;;;;;24.13;22.90;;;22.60;23.50;;;;;;4961794;28;20460;-84
2022/06/10 11:53:57;;;;;;;24.50;23.40;;;22.60;25.00;;;;;;4971285;28;20941;-85
2022/06/10 11:59:45;;;;;;;24.00;22.90;;;22.60;23.90;;;;;;4973431;28;20413;-84
2022/06/10 12:02:19;;;;;;;23.73;22.63;;;22.60;23.50;;;;;;4971487;28;20436;-87
2022/06/10 12:05:06;;;;;;;24.27;22.90;;;22.50;24.30;;;;;;4972180;28;20503;-85
2022/06/10 12:07:38;;;;;;;23.50;22.30;;;22.50;23.80;;;;;;4971730;28;20521;-84
2022/06/10 12:10:07;;;;;;;22.90;21.80;;;22.70;23.90;;;;;;4971395;28;20421;-84
2022/06/10 12:12:38;;;;;;;23.97;22.87;;;22.50;23.40;;;;;;4969892;28;20430;-84
2022/06/10 12:15:23;;;;;;;26.50;25.10;;;22.40;22.90;;;;;;4970209;28;20909;-84
2022/06/10 12:17:55;;;;;;;22.93;21.93;;;22.30;23.20;;;;;;4969661;28;20422;-84
2022/06/10 12:20:57;;;;;;;21.47;20.67;;;22.50;22.10;;;;;;4973675;28;20512;-84
2022/06/10 12:23:30;;;;;;;23.00;21.80;;;22.60;22.00;;;;;;4973574;28;20813;-84
2022/06/10 12:26:25;;;;;;;22.27;21.23;;;22.90;22.60;;;;;;4973278;28;20446;-85
2022/06/10 12:28:57;;;;;;;23.20;22.10;;;22.70;22.50;;;;;;4975200;28;20468;-85
2022/06/10 12:31:56;;;;;;;22.57;21.63;;;22.50;22.00;;;;;;4974756;28;20973;-84
2022/06/10 12:34:43;;;;;;;22.80;21.58;;;22.30;22.90;;;;;;4975030;28;20434;-85
2022/06/10 12:37:25;;;;;;;23.10;21.77;;;22.00;23.00;;;;;;4974799;28;20197;-84
2022/06/10 12:40:03;;;;;;;22.60;21.60;;;21.90;24.00;;;;;;4974808;28;20505;-85
2022/06/10 12:42:35;;;;;;;22.87;21.80;;;21.90;22.80;;;;;;4974950;28;20421;-84
2022/06/10 12:45:03;;;;;;;22.30;21.40;;;22.00;23.00;;;;;;4974551;28;20418;-82
2022/06/10 12:47:34;;;;;;;21.93;21.03;;;22.00;23.20;;;;;;4974184;28;20421;-81
2022/06/10 12:50:04;;;;;;;24.33;23.13;;;21.90;23.90;;;;;;4975066;28;20500;-81
2022/06/10 12:52:43;;;;;;;22.37;21.27;;;22.00;23.80;;;;;;4974502;28;20481;-82
2022/06/10 12:55:36;;;;;;;21.50;20.50;;;21.80;22.90;;;;;;4974515;28;20428;-82
2022/06/10 12:58:03;;;;;;;22.30;21.20;;;21.80;22.80;;;;;;4974739;28;20425;-81
2022/06/10 13:01:30;;;;;;;22.33;21.43;;;21.80;23.90;;;;;;4957116;28;20493;-81
2022/06/10 13:04:01;;;;;;;21.97;21.10;;;21.70;24.30;;;;;;4926736;28;21013;-80
2022/06/10 13:06:42;;;;;;;23.33;21.90;;;21.70;24.30;;;;;;4956998;28;20440;-81
2022/06/10 13:09:11;;;;;;;22.80;21.60;;;21.70;23.60;;;;;;4975489;28;20508;-81
2022/06/10 13:11:46;;;;;;;23.10;22.20;;;21.80;24.40;;;;;;4958319;28;20470;-81
2022/06/10 13:14:30;;;;;;;22.63;21.77;;;22.00;23.10;;;;;;4958205;28;20914;-81
2022/06/10 13:16:58;;;;;;;23.03;22.10;;;22.00;23.00;;;;;;4958047;28;20418;-81
2022/06/10 13:20:02;;;;;;;23.30;22.30;;;21.90;23.70;;;;;;4975750;28;20421;-81